Pine Forge, Pennsylvania
Current Conditions -  °F | °C
As of 9:54 PM on Saturday 24 Jan 2015 (Local Time) from KPTW Reporting Station
Scattered Clouds Scattered Clouds  
Wind Chill: 26°   Ceiling: Unl
Heat Index: 34°   Visibility: 10mi
Dew Point: 23°   Wind: 10mph
Humidity: 64%   Direction: 290°WNW
Pressure: 29.54"   Gusts: NA
Location:  40.28°N, 75.69°W
Report Text: KPTW 250254Z AUTO 29009KT 10SM SCT070 01/M05 A2954 RMK AO2 SLP002 T00111050 53026
Loading
Personal Weather Stations






























Interactive Weather Map New forecast layout! Learn more

10-Day Weather Forecast

Advertisements
Track Severe Weather on mobile